This is the latest recevied weather packets stored in our database for station/object WZ9ZZZ-1. If no packets are shown the sender has not sent any weather packets the latest 1 day(s).
| Time | Temp. | Humidity | Pressure | Rain* | Wind** | Luminosity | Snow |
|---|---|---|---|---|---|---|---|
| 1777994014 | 25° C | 88% | 1013.3 hPa | 0 mm | 3.58 m/s, 256° | 203 W/m² | - |
| 1777993712 | 25° C | 90% | 1013.1 hPa | 0 mm | 0.89 m/s, 125° | 606 W/m² | - |
| 1777993409 | 24.44° C | 90% | 1013.2 hPa | 0 mm | 1.79 m/s, 207° | 476 W/m² | - |
| 1777993103 | 24.44° C | 91% | 1013 hPa | 0 mm | 2.24 m/s, 209° | 262 W/m² | - |
| 1777992802 | 23.89° C | 91% | 1013.3 hPa | 0 mm | 2.24 m/s, 199° | 131 W/m² | - |
| 1777992499 | 24.44° C | 90% | 1013.4 hPa | 0 mm | 1.79 m/s, 282° | 52 W/m² | - |
| 1777992197 | 24.44° C | 90% | 1013.4 hPa | 0 mm | 1.79 m/s, 250° | 28 W/m² | - |
| 1777991894 | 24.44° C | 89% | 1013.5 hPa | 0 mm | 0.89 m/s, 220° | 35 W/m² | - |
| 1777991592 | 24.44° C | 88% | 1013.5 hPa | 0 mm | 0.45 m/s, 217° | 24 W/m² | - |
| 1777991288 | 24.44° C | 87% | 1013.4 hPa | 0 mm | 1.34 m/s, 239° | 21 W/m² | - |
| 1777990986 | 24.44° C | 87% | 1013.3 hPa | 0 mm | 1.79 m/s, 226° | 24 W/m² | - |
| 1777990683 | 24.44° C | 87% | 1013.3 hPa | 0 mm | 2.24 m/s, 231° | 41 W/m² | - |
| 1777990380 | 24.44° C | 87% | 1013.3 hPa | 0 mm | 1.34 m/s, 260° | 41 W/m² | - |
| 1777990076 | 24.44° C | 87% | 1013.3 hPa | 0 mm | 1.34 m/s, 238° | 45 W/m² | - |
| 1777989773 | 24.44° C | 87% | 1013.5 hPa | 0 mm | 2.24 m/s, 291° | 32 W/m² | - |
| 1777989470 | 24.44° C | 87% | 1013.4 hPa | 0 mm | 2.68 m/s, 240° | 32 W/m² | - |
| 1777989166 | 24.44° C | 87% | 1013.1 hPa | 0 mm | 2.24 m/s, 233° | 30 W/m² | - |
| 1777988862 | 24.44° C | 87% | 1013 hPa | 0 mm | 1.79 m/s, 224° | 45 W/m² | - |
| 1777988560 | 24.44° C | 87% | 1013.2 hPa | 0 mm | 1.34 m/s, 178° | 69 W/m² | - |
| 1777988256 | 24.44° C | 87% | 1013.2 hPa | 0 mm | 2.24 m/s, 252° | 90 W/m² | - |
| 1777987953 | 24.44° C | 87% | 1013 hPa | 0 mm | 0.89 m/s, 268° | 75 W/m² | - |
| 1777987648 | 24.44° C | 87% | 1012.9 hPa | 0 mm | 2.24 m/s, 279° | 77 W/m² | - |
| 1777987346 | 24.44° C | 87% | 1013.1 hPa | 0 mm | 2.68 m/s, 241° | 98 W/m² | - |
| 1777987043 | 24.44° C | 87% | 1013.2 hPa | 0 mm | 2.24 m/s, 140° | 98 W/m² | - |
| 1777986741 | 24.44° C | 87% | 1013 hPa | 0 mm | 0.89 m/s, 188° | 131 W/m² | - |
* Rain latest hour (hover to see other rain measurements)
** Current wind speed in m/s (hover to see current wind gust speed)